D/T METAR WX W/DIR W/SPE G/SPE TEMP DEWP
23/03/19 12:20 EGJA 231220Z 04006KT 010V070 7000 BKN007 BKN033 11/09 Q1031 NE (40°) 6.9mph 11°C 9°C
23/03/19 11:50 EGJA 231150Z 03005KT 350V070 7000 BKN007 11/09 Q1031 NNE (30°) 5.8mph 11°C 9°C
23/03/19 11:20 EGJA 231120Z 01004KT 340V040 7000 BKN006 11/09 Q1031 N (10°) 4.6mph 11°C 9°C
23/03/19 10:50 EGJA 231050Z 36005KT 8000 SCT008 BKN036 11/09 Q1031 N (360°) 5.8mph 11°C 9°C
23/03/19 10:20 EGJA 231020Z 06004KT 030V090 9999 SCT008 BKN036 11/09 Q1031 ENE (60°) 4.6mph 11°C 9°C
23/03/19 09:50 EGJA 230950Z VRB03KT 9999 FEW009 BKN038 11/09 Q1031 N (0°) 3.5mph 11°C 9°C
23/03/19 09:20 EGJA 230920Z VRB03KT 9999 FEW009 BKN038 10/09 Q1031 N (0°) 3.5mph 10°C 9°C
23/03/19 08:50 EGJA 230850Z VRB02KT 9999 FEW009 BKN038 10/08 Q1031 N (0°) 2.3mph 10°C 8°C
23/03/19 08:20 EGJA 230820Z VRB01KT 9999 SCT009 BKN038 10/08 Q1031 N (0°) 1.2mph 10°C 8°C
23/03/19 07:50 EGJA 230750Z 26002KT 9999 SCT009 BKN037 09/07 Q1031 W (260°) 2.3mph 9°C 7°C
23/03/19 06:50 EGJA 230650Z 24001KT 9999 BKN011 09/08 Q1030 WSW (240°) 1.2mph 9°C 8°C
22/03/19 17:50 EGJA 221750Z 31005KT 4500 HZ SCT004 09/08 Q1028 HZ NW (310°) 5.8mph 9°C 8°C
22/03/19 17:20 EGJA 221720Z 30006KT 5000 HZ SCT004 09/08 Q1028 HZ WNW (300°) 6.9mph 9°C 8°C
22/03/19 16:50 EGJA 221650Z 27006KT 220V300 5000 HZ FEW005 10/08 Q1028 HZ W (270°) 6.9mph 10°C 8°C
22/03/19 16:20 EGJA 221620Z VRB03KT 9000 FEW018 11/07 Q1028 N (0°) 3.5mph 11°C 7°C
22/03/19 15:50 EGJA 221550Z 22004KT 180V250 9000 FEW018 12/07 Q1028 SW (220°) 4.6mph 12°C 7°C
22/03/19 15:20 EGJA 221520Z VRB03KT 9000 FEW018 12/08 Q1028 N (0°) 3.5mph 12°C 8°C
22/03/19 14:50 EGJA 221450Z VRB03KT 9000 FEW015 11/08 Q1028 N (0°) 3.5mph 11°C 8°C
22/03/19 14:20 EGJA 221420Z 21004KT 150V250 6000 FEW015 11/08 Q1028 SSW (210°) 4.6mph 11°C 8°C
22/03/19 13:50 EGJA 221350Z 18005KT 5000 HZ FEW004 10/08 Q1028 HZ S (180°) 5.8mph 10°C 8°C
22/03/19 13:20 EGJA 221320Z 18006KT 5000 HZ SCT003 10/08 Q1028 HZ S (180°) 6.9mph 10°C 8°C
22/03/19 12:50 EGJA 221250Z 19007KT 5000 HZ FEW005 10/08 Q1029 HZ S (190°) 8.1mph 10°C 8°C
22/03/19 12:20 EGJA 221220Z 18006KT 5000 HZ FEW005 11/09 Q1029 HZ S (180°) 6.9mph 11°C 9°C
22/03/19 11:50 EGJA 221150Z 18006KT 5000 HZ FEW005 SCT025 10/09 Q1029 HZ S (180°) 6.9mph 10°C 9°C
22/03/19 11:20 EGJA 221120Z 17006KT 140V210 5000 HZ FEW005 BKN025 10/08 Q1029 HZ S (170°) 6.9mph 10°C 8°C
22/03/19 10:50 EGJA 221050Z 16005KT 120V190 5000 HZ BKN025 10/08 Q1029 HZ SSE (160°) 5.8mph 10°C 8°C
22/03/19 10:20 EGJA 221020Z 15006KT 6000 FEW005 BKN025 09/08 Q1029 SSE (150°) 6.9mph 9°C 8°C
22/03/19 09:50 EGJA 220950Z 14006KT 6000 FEW010 BKN025 09/08 Q1029 SE (140°) 6.9mph 9°C 8°C
22/03/19 09:20 EGJA 220920Z 15006KT 6000 FEW005 BKN025 09/07 Q1029 SSE (150°) 6.9mph 9°C 7°C
22/03/19 08:50 EGJA 220850Z 15006KT 8000 FEW005 BKN025 09/08 Q1029 SSE (150°) 6.9mph 9°C 8°C
22/03/19 08:20 EGJA 220820Z 15006KT 9999 FEW005 BKN020 09/08 Q1029 SSE (150°) 6.9mph 9°C 8°C
22/03/19 07:50 EGJA 220750Z 17005KT 9999 FEW010 BKN020 09/07 Q1029 S (170°) 5.8mph 9°C 7°C
22/03/19 07:20 EGJA 220720Z 17004KT 140V200 9999 FEW010 BKN018 09/07 Q1029 S (170°) 4.6mph 9°C 7°C
22/03/19 06:50 EGJA 220650Z 16004KT 9999 FEW010 BKN018 08/07 Q1029 SSE (160°) 4.6mph 8°C 7°C
21/03/19 18:20 EGJA 211820Z 08003KT 9999 BKN020 10/08 Q1032 E (80°) 3.5mph 10°C 8°C
21/03/19 17:50 EGJA 211750Z 05004KT 9999 BKN022 10/08 Q1032 NE (50°) 4.6mph 10°C 8°C
21/03/19 17:20 EGJA 211720Z VRB03KT 9999 BKN022 10/08 Q1032 N (0°) 3.5mph 10°C 8°C
21/03/19 16:50 EGJA 211650Z VRB03KT 9999 BKN022 10/08 Q1032 N (0°) 3.5mph 10°C 8°C
21/03/19 16:20 EGJA 211620Z 02004KT 9999 FEW007 BKN022 10/08 Q1032 NNE (20°) 4.6mph 10°C 8°C
21/03/19 15:50 EGJA 211550Z 02004KT 350V050 9999 FEW007 BKN022 10/08 Q1033 NNE (20°) 4.6mph 10°C 8°C
21/03/19 15:20 EGJA 211520Z 36004KT 330V050 9999 FEW007 BKN024 10/08 Q1033 N (360°) 4.6mph 10°C 8°C
21/03/19 14:50 EGJA 211450Z VRB03KT 9999 FEW007 BKN024 10/09 Q1033 N (0°) 3.5mph 10°C 9°C
21/03/19 14:20 EGJA 211420Z VRB03KT 9999 SCT009 BKN024 11/08 Q1033 N (0°) 3.5mph 11°C 8°C
21/03/19 13:50 EGJA 211350Z VRB02KT 9999 SCT009 BKN024 11/08 Q1034 N (0°) 2.3mph 11°C 8°C
21/03/19 13:20 EGJA 211320Z VRB03KT 9999 SCT009 BKN024 11/09 Q1034 N (0°) 3.5mph 11°C 9°C
21/03/19 12:20 EGJA 211220Z VRB03KT 9999 SCT005 BKN024 11/09 Q1035 N (0°) 3.5mph 11°C 9°C
21/03/19 11:20 EGJA 211120Z VRB03KT 9999 BKN010 10/09 Q1035 N (0°) 3.5mph 10°C 9°C
21/03/19 10:20 EGJA 211020Z VRB02KT 9999 SCT006 BKN018 10/09 Q1035 N (0°) 2.3mph 10°C 9°C
21/03/19 09:50 EGJA 210950Z VRB03KT 9999 BKN006 10/09 Q1035 N (0°) 3.5mph 10°C 9°C
21/03/19 09:20 EGJA 210920Z VRB03KT 9999 FEW006 BKN022 09/09 Q1035 N (0°) 3.5mph 9°C 9°C
21/03/19 08:50 EGJA 210850Z 01004KT 9999 FEW004 BKN022 09/09 Q1035 N (10°) 4.6mph 9°C 9°C
21/03/19 08:20 EGJA 210820Z 01004KT 9999 FEW003 BKN022 09/09 Q1035 N (10°) 4.6mph 9°C 9°C
21/03/19 07:50 EGJA 210750Z 36004KT 9999 SCT003 BKN022 09/09 Q1034 N (360°) 4.6mph 9°C 9°C
21/03/19 07:20 EGJA 210720Z 34004KT 9999 SCT002 BKN020 09/09 Q1034 NNW (340°) 4.6mph 9°C 9°C
20/03/19 18:50 EGJA 201850Z 25007KT 220V280 9999 BKN006 09/09 Q1034 WSW (250°) 8.1mph 9°C 9°C
20/03/19 18:20 EGJA 201820Z 24009KT 210V270 9999 SCT003 BKN009 09/08 Q1034 WSW (240°) 10.4mph 9°C 8°C
20/03/19 17:50 EGJA 201750Z 23008KT 9999 SCT003 BKN009 09/09 Q1034 SW (230°) 9.2mph 9°C 9°C
20/03/19 17:20 EGJA 201720Z 24007KT 210V270 9999 SCT003 BKN009 10/09 Q1034 WSW (240°) 8.1mph 10°C 9°C
20/03/19 16:50 EGJA 201650Z 22006KT 9999 FEW005 BKN014 10/09 Q1034 SW (220°) 6.9mph 10°C 9°C
20/03/19 16:20 EGJA 201620Z 23006KT 9999 SCT003 BKN014 10/09 Q1033 SW (230°) 6.9mph 10°C 9°C
20/03/19 15:50 EGJA 201550Z 23007KT 210V270 9999 SCT003 BKN014 10/10 Q1033 SW (230°) 8.1mph 10°C 10°C
20/03/19 15:20 EGJA 201520Z 25007KT 220V280 4000 BR FEW001 BKN003 10/10 Q1033 BR WSW (250°) 8.1mph 10°C 10°C
20/03/19 14:50 EGJA 201450Z 23009KT 4000 BR FEW000 BKN001 10/09 Q1034 BR SW (230°) 10.4mph 10°C 9°C
20/03/19 14:20 EGJA 201420Z 23009KT 6000 FEW001 BKN003 10/10 Q1034 SW (230°) 10.4mph 10°C 10°C
20/03/19 13:50 EGJA 201350Z 22007KT 0500 R26/0250 FG BKN000 10/10 Q1034 FG SW (220°) 8.1mph 10°C 10°C
20/03/19 12:50 EGJA 201250Z 22008KT 4000 BR BKN001 10/10 Q1034 BR SW (220°) 9.2mph 10°C 10°C
20/03/19 12:20 EGJA 201220Z 23009KT 5000 BR SCT004 BKN010 10/10 Q1034 BR SW (230°) 10.4mph 10°C 10°C
20/03/19 08:20 EGJA 200820Z 22007KT 0300 R26/0250 DZ FG BKN000 10/09 Q1033 DZ FG SW (220°) 8.1mph 10°C 9°C
20/03/19 07:50 EGJA 200750Z 22007KT 0200 R26/0600 DZ FG BKN000 09/09 Q1033 DZ FG SW (220°) 8.1mph 9°C 9°C
20/03/19 07:20 EGJA 200720Z 23008KT 0500 R26/0600 DZ FG BKN000 09/09 Q1033 DZ FG SW (230°) 9.2mph 9°C 9°C
20/03/19 06:50 EGJA 200650Z 22008KT 0100 DZ FG BKN000 09/09 Q1033 DZ FG SW (220°) 9.2mph 9°C 9°C
19/03/19 18:20 EGJA 191820Z 23007KT 9999 FEW005 09/08 Q1030 SW (230°) 8.1mph 9°C 8°C
19/03/19 17:50 EGJA 191750Z 23007KT 9999 FEW005 09/08 Q1030 SW (230°) 8.1mph 9°C 8°C
19/03/19 17:20 EGJA 191720Z 24006KT 9999 FEW006 10/08 Q1030 WSW (240°) 6.9mph 10°C 8°C
19/03/19 16:50 EGJA 191650Z 26007KT 9999 FEW006 10/09 Q1029 W (260°) 8.1mph 10°C 9°C
19/03/19 16:20 EGJA 191620Z 26008KT 9999 FEW004 SCT006 10/09 Q1029 W (260°) 9.2mph 10°C 9°C
19/03/19 15:50 EGJA 191550Z 22007KT 9999 SCT003 BKN005 10/09 Q1029 SW (220°) 8.1mph 10°C 9°C
19/03/19 15:20 EGJA 191520Z 22007KT 9999 SCT002 BKN003 10/09 Q1029 SW (220°) 8.1mph 10°C 9°C
19/03/19 14:50 EGJA 191450Z 23007KT 9999 SCT001 BKN002 10/09 Q1029 SW (230°) 8.1mph 10°C 9°C
19/03/19 14:20 EGJA 191420Z 21006KT 9999 SCT001 BKN002 10/09 Q1029 SSW (210°) 6.9mph 10°C 9°C
19/03/19 13:50 EGJA 191350Z 23006KT 9999 SCT001 BKN002 09/09 Q1029 SW (230°) 6.9mph 9°C 9°C
19/03/19 13:20 EGJA 191320Z 20007KT 9999 4000SW SCT001 BKN002 10/09 Q1029 SSW (200°) 8.1mph 10°C 9°C
19/03/19 12:50 EGJA 191250Z 19006KT 9999 VCSH FEW005 SCT012 10/09 Q1029 VCSH S (190°) 6.9mph 10°C 9°C
19/03/19 12:20 EGJA 191220Z 21006KT 9999 VCSH FEW005 SCT012 10/08 Q1029 VCSH SSW (210°) 6.9mph 10°C 8°C
19/03/19 11:50 EGJA 191150Z 23006KT 9999 VCSH FEW005 BKN018 10/08 Q1029 VCSH SW (230°) 6.9mph 10°C 8°C
19/03/19 11:20 EGJA 191120Z 22007KT 9999 SCT005 BKN031 10/09 Q1029 SW (220°) 8.1mph 10°C 9°C
19/03/19 10:50 EGJA 191050Z 22007KT 9999 FEW005 BKN035 11/09 Q1029 SW (220°) 8.1mph 11°C 9°C
19/03/19 10:20 EGJA 191020Z 22006KT 9999 FEW005 BKN035 10/09 Q1029 SW (220°) 6.9mph 10°C 9°C
19/03/19 09:50 EGJA 190950Z 22006KT 9999 FEW005 BKN035 10/09 Q1029 SW (220°) 6.9mph 10°C 9°C
19/03/19 09:20 EGJA 190920Z 22004KT 9999 FEW005 BKN035 10/09 Q1028 SW (220°) 4.6mph 10°C 9°C
19/03/19 08:50 EGJA 190850Z 25005KT 200V280 9999 FEW005 BKN035 10/09 Q1028 WSW (250°) 5.8mph 10°C 9°C
19/03/19 07:50 EGJA 190750Z 22005KT 9999 FEW007 BKN035 09/08 Q1028 SW (220°) 5.8mph 9°C 8°C
19/03/19 06:50 EGJA 190650Z 25004KT 9999 FEW007 BKN035 09/08 Q1027 WSW (250°) 4.6mph 9°C 8°C
18/03/19 18:20 EGJA 181820Z 29011KT 9999 SCT013 08/06 Q1024 WNW (290°) 12.7mph 8°C 6°C
18/03/19 17:50 EGJA 181750Z 29011KT 9999 SCT013 08/06 Q1024 WNW (290°) 12.7mph 8°C 6°C
18/03/19 17:20 EGJA 181720Z 29013KT 9999 SCT013 08/06 Q1024 WNW (290°) 15.0mph 8°C 6°C
18/03/19 16:50 EGJA 181650Z 29011KT 9999 SCT013 08/06 Q1024 WNW (290°) 12.7mph 8°C 6°C
18/03/19 16:20 EGJA 181620Z 29013KT 9999 BKN016 08/06 Q1024 WNW (290°) 15.0mph 8°C 6°C
18/03/19 15:50 EGJA 181550Z 29012KT 9999 SCT016 SCT028 09/05 Q1024 WNW (290°) 13.8mph 9°C 5°C
18/03/19 15:20 EGJA 181520Z 28011KT 9999 SCT016 08/06 Q1023 W (280°) 12.7mph 8°C 6°C
18/03/19 14:50 EGJA 181450Z 28011KT 9999 -SHRA FEW013 SCT026 08/06 Q1023 -SHRA W (280°) 12.7mph 8°C 6°C
18/03/19 14:20 EGJA 181420Z 29013KT 9999 -SHRA SCT026 08/06 Q1024 -SHRA WNW (290°) 15.0mph 8°C 6°C
18/03/19 13:50 EGJA 181350Z 28012KT 9999 FEW020 SCT037 09/06 Q1023 W (280°) 13.8mph 9°C 6°C
18/03/19 13:20 EGJA 181320Z 29012KT 9999 FEW020 SCT037 10/04 Q1024 WNW (290°) 13.8mph 10°C 4°C
18/03/19 12:50 EGJA 181250Z 30012KT 9999 FEW020 SCT037 10/05 Q1024 WNW (300°) 13.8mph 10°C 5°C
18/03/19 11:50 EGJA 181150Z 30012KT 9999 FEW020 10/06 Q1024 WNW (300°) 13.8mph 10°C 6°C
18/03/19 11:20 EGJA 181120Z 31012KT 9999 FEW018 10/05 Q1024 NW (310°) 13.8mph 10°C 5°C
18/03/19 10:50 EGJA 181050Z 30011KT 9999 FEW018 09/06 Q1024 WNW (300°) 12.7mph 9°C 6°C
18/03/19 10:20 EGJA 181020Z 30013KT 9999 FEW017 09/05 Q1023 WNW (300°) 15.0mph 9°C 5°C
18/03/19 09:50 EGJA 180950Z 30011KT 9999 FEW017 09/05 Q1023 WNW (300°) 12.7mph 9°C 5°C
18/03/19 09:20 EGJA 180920Z 31011KT 9999 FEW020 09/05 Q1023 NW (310°) 12.7mph 9°C 5°C
18/03/19 08:50 EGJA 180850Z 31011KT 9999 FEW019 09/05 Q1023 NW (310°) 12.7mph 9°C 5°C
18/03/19 08:20 EGJA 180820Z 30010KT 9999 SCT019 09/06 Q1023 WNW (300°) 11.5mph 9°C 6°C
18/03/19 07:50 EGJA 180750Z 30010KT 9999 SCT020 08/05 Q1022 WNW (300°) 11.5mph 8°C 5°C
18/03/19 07:20 EGJA 180720Z 31011KT 9999 SCT020 08/05 Q1022 NW (310°) 12.7mph 8°C 5°C
18/03/19 06:50 EGJA 180650Z 31011KT 9999 SCT018 08/04 Q1022 NW (310°) 12.7mph 8°C 4°C
17/03/19 17:50 EGJA 171750Z 28021KT 9999 FEW023 08/03 Q1014 W (280°) 24.2mph 8°C 3°C
17/03/19 17:20 EGJA 171720Z 29021KT 9999 FEW022 08/03 Q1014 WNW (290°) 24.2mph 8°C 3°C
17/03/19 16:50 EGJA 171650Z 28021KT 9999 FEW022 08/03 Q1013 W (280°) 24.2mph 8°C 3°C
17/03/19 16:20 EGJA 171620Z 28019KT 9999 FEW022 08/04 Q1013 W (280°) 21.9mph 8°C 4°C
17/03/19 15:50 EGJA 171550Z 28019KT 9999 FEW022 08/04 Q1012 W (280°) 21.9mph 8°C 4°C
17/03/19 15:20 EGJA 171520Z 28018KT 9999 FEW022 08/04 Q1012 W (280°) 20.7mph 8°C 4°C
17/03/19 14:50 EGJA 171450Z 28018KT 9999 FEW021 08/03 Q1012 W (280°) 20.7mph 8°C 3°C
17/03/19 14:20 EGJA 171420Z 28016KT 9999 SCT020 08/04 Q1012 W (280°) 18.4mph 8°C 4°C
17/03/19 13:50 EGJA 171350Z 27016KT 9999 FEW016 SCT026 08/04 Q1011 W (270°) 18.4mph 8°C 4°C
17/03/19 13:20 EGJA 171320Z 27017KT 9999 FEW016CB SCT026 08/05 Q1011 W (270°) 19.6mph 8°C 5°C
17/03/19 12:20 EGJA 171220Z 29013KT 9999 VCSH FEW015CB SCT026 08/03 Q1011 VCSH WNW (290°) 15.0mph 8°C 3°C
17/03/19 11:50 EGJA 171150Z 26021KT 9999 VCSH FEW015CB SCT030 08/03 Q1011 VCSH W (260°) 24.2mph 8°C 3°C
17/03/19 10:50 EGJA 171050Z 28014G27KT 9999 VCSH FEW015CB SCT028 08/04 Q1010 VCSH W (280°) 16.1mph 31.1mph 8°C 4°C
17/03/19 10:20 EGJA 171020Z 27021G31KT 9999 VCSH FEW015CB SCT028 05/02 Q1010 VCSH W (270°) 24.2mph 35.7mph 5°C 2°C
17/03/19 09:50 EGJA 170950Z 29019KT 9999 VCSH FEW015CB SCT035 08/02 Q1009 VCSH WNW (290°) 21.9mph 8°C 2°C
17/03/19 09:20 EGJA 170920Z 29017G27KT 9999 VCSH FEW015CB SCT025 08/02 Q1009 VCSH WNW (290°) 19.6mph 31.1mph 8°C 2°C
17/03/19 08:50 EGJA 170850Z 29023KT 9999 VCSH SCT015CB 07/02 Q1008 VCSH WNW (290°) 26.5mph 7°C 2°C
17/03/19 08:20 EGJA 170820Z 30022KT 9999 VCSH SCT026CB 06/01 Q1008 VCSH WNW (300°) 25.3mph 6°C 1°C
16/03/19 18:20 EGJA 161820Z 21027KT 9999 BKN030 10/07 Q1002 SSW (210°) 31.1mph 10°C 7°C
16/03/19 17:50 EGJA 161750Z 21026G40KT 9999 BKN022 10/07 Q1002 SSW (210°) 29.9mph 46.0mph 10°C 7°C
16/03/19 17:20 EGJA 161720Z 22025G37KT 9999 BKN022 10/07 Q1003 SW (220°) 28.8mph 42.6mph 10°C 7°C
16/03/19 16:20 EGJA 161620Z 22025G37KT 9999 BKN022 10/06 Q1004 SW (220°) 28.8mph 42.6mph 10°C 6°C
16/03/19 15:50 EGJA 161550Z 22027G41KT 9999 BKN025 10/06 Q1004 SW (220°) 31.1mph 47.2mph 10°C 6°C
16/03/19 15:20 EGJA 161520Z 22026G38KT 9999 BKN030 10/07 Q1005 SW (220°) 29.9mph 43.7mph 10°C 7°C
16/03/19 14:50 EGJA 161450Z 22027G37KT 9999 BKN022 10/07 Q1006 SW (220°) 31.1mph 42.6mph 10°C 7°C
16/03/19 14:20 EGJA 161420Z 23029G39KT 9999 FEW021 BKN033 10/06 Q1006 SW (230°) 33.4mph 44.9mph 10°C 6°C
16/03/19 13:50 EGJA 161350Z 23025G35KT 9999 FEW021 BKN033 10/07 Q1007 SW (230°) 28.8mph 40.3mph 10°C 7°C
16/03/19 13:20 EGJA 161320Z 23024G34KT 9999 FEW023 BKN032 10/07 Q1007 SW (230°) 27.6mph 39.1mph 10°C 7°C